Time;durP1;ratioP1;P1;durP2;ratioP2;P2;SDS_P1;SDS_P2;PMS_P1;PMS_P2;Temp;Humidity;BMP_temperature;BMP_pressure;BME280_temperature;BME280_humidity;BME280_pressure;Samples;Min_cycle;Max_cycle;Signal;HPM_P1;HPM_P2
2023/03/17 00:00:28;;;;;;;;;;;;;;;;;;5051550;28;1523;-56
2023/03/17 00:02:53;;;;;;;;;;;;;;;;;;5044365;28;4447;-55
2023/03/17 00:05:22;;;;;;;;;;;;;;;;;;5045619;28;5703;-56
2023/03/17 00:07:48;;;;;;;;;;;;;;;;;;5048317;28;4532;-57
2023/03/17 00:10:16;;;;;;;;;;;;;;;;;;5044472;28;4931;-53
2023/03/17 00:12:41;;;;;;;;;;;;;;;;;;5042228;28;3403;-53
2023/03/17 00:15:07;;;;;;;;;;;;;;;;;;5048842;28;5124;-56
2023/03/17 00:17:32;;;;;;;;;;;;;;;;;;5040913;28;5011;-55
2023/03/17 00:19:58;;;;;;;;;;;;;;;;;;5043540;28;4917;-55
2023/03/17 00:22:24;;;;;;;;;;;;;;;;;;5042931;28;4856;-56
2023/03/17 00:24:50;;;;;;;;;;;;;;;;;;5049045;28;5066;-51
2023/03/17 00:27:16;;;;;;;;;;;;;;;;;;5044926;28;3203;-56
2023/03/17 00:29:42;;;;;;;;;;;;;;;;;;5048036;28;4593;-55
2023/03/17 00:32:16;;;;;;;;;;;;;;;;;;5044301;28;4990;-56
2023/03/17 00:34:41;;;;;;;;;;;;;;;;;;5044365;28;4611;-55
2023/03/17 00:37:09;;;;;;;;;;;;;;;;;;5048091;28;4632;-57
2023/03/17 00:39:34;;;;;;;;;;;;;;;;;;5047077;28;3011;-56
2023/03/17 00:41:59;;;;;;;;;;;;;;;;;;5046384;28;4588;-52
2023/03/17 00:44:25;;;;;;;;;;;;;;;;;;5046963;28;4607;-56
2023/03/17 00:46:50;;;;;;;;;;;;;;;;;;5042875;28;4847;-55
2023/03/17 00:49:16;;;;;;;;;;;;;;;;;;5037412;28;5214;-56
2023/03/17 00:51:43;;;;;;;;;;;;;;;;;;5049437;28;3234;-54
2023/03/17 00:54:09;;;;;;;;;;;;;;;;;;5042295;28;4459;-55
2023/03/17 00:56:34;;;;;;;;;;;;;;;;;;5042824;28;5028;-56
2023/03/17 00:58:59;;;;;;;;;;;;;;;;;;5042171;28;4937;-56
2023/03/17 01:01:25;;;;;;;;;;;;;;;;;;5042126;28;4691;-56
2023/03/17 01:03:51;;;;;;;;;;;;;;;;;;5043437;28;5060;-52
2023/03/17 01:06:16;;;;;;;;;;;;;;;;;;5044665;28;3231;-56
2023/03/17 01:08:43;;;;;;;;;;;;;;;;;;5045704;28;4476;-52
2023/03/17 01:11:13;;;;;;;;;;;;;;;;;;5033372;28;4581;-56
2023/03/17 01:13:39;;;;;;;;;;;;;;;;;;5044721;28;5025;-56
2023/03/17 01:16:04;;;;;;;;;;;;;;;;;;5038562;28;4641;-55
2023/03/17 01:18:30;;;;;;;;;;;;;;;;;;5041320;28;4851;-56
2023/03/17 01:20:55;;;;;;;;;;;;;;;;;;5041357;28;4823;-55
2023/03/17 01:23:21;;;;;;;;;;;;;;;;;;5038440;28;4507;-56
2023/03/17 01:25:47;;;;;;;;;;;;;;;;;;5042189;28;5954;-54
2023/03/17 01:28:13;;;;;;;;;;;;;;;;;;5040048;28;5128;-56
2023/03/17 01:30:39;;;;;;;;;;;;;;;;;;5039685;28;3425;-56
2023/03/17 01:33:05;;;;;;;;;;;;;;;;;;5038817;28;5017;-56
2023/03/17 01:35:30;;;;;;;;;;;;;;;;;;5042061;28;4636;-52
2023/03/17 01:37:56;;;;;;;;;;;;;;;;;;5041279;28;4511;-55
2023/03/17 01:40:26;;;;;;;;;;;;;;;;;;5040451;28;4695;-55
2023/03/17 01:43:09;;;;;;;;;;;;;;;;;;5040240;28;4533;-55
2023/03/17 01:45:53;;;;;;;;;;;;;;;;;;5035330;28;3284;-55
2023/03/17 01:48:18;;;;;;;;;;;;;;;;;;5039934;28;4968;-56
2023/03/17 01:50:44;;;;;;;;;;;;;;;;;;5042701;28;5026;-56
2023/03/17 01:53:10;;;;;;;;;;;;;;;;;;5046753;28;4834;-55
2023/03/17 01:55:35;;;;;;;;;;;;;;;;;;5043302;28;4699;-56
2023/03/17 01:58:01;;;;;;;;;;;;;;;;;;5031959;28;4485;-54
2023/03/17 02:00:26;;;;;;;;;;;;;;;;;;5043497;28;3243;-56
2023/03/17 02:02:52;;;;;;;;;;;;;;;;;;5044102;28;5092;-52
2023/03/17 02:05:25;;;;;;;;;;;;;;;;;;5040290;28;4743;-55
2023/03/17 02:07:50;;;;;;;;;;;;;;;;;;5045239;28;4534;-55
2023/03/17 02:10:16;;;;;;;;;;;;;;;;;;5040991;28;4495;-55
2023/03/17 02:12:42;;;;;;;;;;;;;;;;;;5042381;28;3193;-56
2023/03/17 02:15:08;;;;;;;;;;;;;;;;;;5045678;28;4699;-57
2023/03/17 02:17:33;;;;;;;;;;;;;;;;;;5041392;28;5084;-55
2023/03/17 02:20:14;;;;;;;;;;;;;;;;;;5038217;28;5493;-54
2023/03/17 02:22:39;;;;;;;;;;;;;;;;;;5046224;28;4875;-56
2023/03/17 02:25:05;;;;;;;;;;;;;;;;;;5043898;28;4492;-55
2023/03/17 02:27:50;;;;;;;;;;;;;;;;;;5041495;28;1321;-55
2023/03/17 02:30:17;;;;;;;;;;;;;;;;;;5042607;28;4744;-56
2023/03/17 02:32:43;;;;;;;;;;;;;;;;;;5041138;28;5090;-56
2023/03/17 02:35:08;;;;;;;;;;;;;;;;;;5045876;28;4627;-56
2023/03/17 02:37:33;;;;;;;;;;;;;;;;;;5044997;28;5062;-56
2023/03/17 02:40:00;;;;;;;;;;;;;;;;;;5036557;28;4492;-57
2023/03/17 02:42:26;;;;;;;;;;;;;;;;;;5042989;28;1130;-57
2023/03/17 02:44:51;;;;;;;;;;;;;;;;;;5044545;28;4982;-55
2023/03/17 02:47:17;;;;;;;;;;;;;;;;;;5033041;28;4548;-56
2023/03/17 02:49:42;;;;;;;;;;;;;;;;;;5036197;28;4457;-53
2023/03/17 02:52:08;;;;;;;;;;;;;;;;;;5036807;28;4708;-55
2023/03/17 02:54:33;;;;;;;;;;;;;;;;;;5035461;28;3223;-57
2023/03/17 02:56:58;;;;;;;;;;;;;;;;;;5044791;28;4577;-55
2023/03/17 02:59:24;;;;;;;;;;;;;;;;;;5039393;28;4690;-55
2023/03/17 03:01:49;;;;;;;;;;;;;;;;;;5040570;28;4560;-56
2023/03/17 03:04:15;;;;;;;;;;;;;;;;;;5043227;28;4583;-57
2023/03/17 03:06:41;;;;;;;;;;;;;;;;;;5035856;28;3356;-53
2023/03/17 03:09:07;;;;;;;;;;;;;;;;;;5042900;28;4971;-56
2023/03/17 03:11:32;;;;;;;;;;;;;;;;;;5039561;28;4640;-57
2023/03/17 03:13:57;;;;;;;;;;;;;;;;;;5041787;28;5048;-56
2023/03/17 03:16:23;;;;;;;;;;;;;;;;;;5032822;28;5572;-56
2023/03/17 03:18:48;;;;;;;;;;;;;;;;;;5037869;28;4685;-50
2023/03/17 03:21:13;;;;;;;;;;;;;;;;;;5039760;28;3107;-55
2023/03/17 03:23:38;;;;;;;;;;;;;;;;;;5042403;28;4855;-56
2023/03/17 03:26:04;;;;;;;;;;;;;;;;;;5045024;28;4650;-56
2023/03/17 03:28:29;;;;;;;;;;;;;;;;;;5043865;28;4609;-55
2023/03/17 03:30:54;;;;;;;;;;;;;;;;;;5047957;28;4628;-55
2023/03/17 03:33:20;;;;;;;;;;;;;;;;;;5047019;28;3264;-54
2023/03/17 03:35:45;;;;;;;;;;;;;;;;;;5036461;28;4588;-55
2023/03/17 03:38:10;;;;;;;;;;;;;;;;;;5045307;28;4576;-55
2023/03/17 03:40:36;;;;;;;;;;;;;;;;;;5071730;28;5209;-55
2023/03/17 03:43:01;;;;;;;;;;;;;;;;;;5043682;28;4558;-55
2023/03/17 03:45:26;;;;;;;;;;;;;;;;;;5042934;28;3390;-54
2023/03/17 03:47:51;;;;;;;;;;;;;;;;;;5042600;28;4528;-54
2023/03/17 03:50:17;;;;;;;;;;;;;;;;;;5044533;28;5319;-55
2023/03/17 03:52:42;;;;;;;;;;;;;;;;;;5045299;28;4667;-55
2023/03/17 03:55:08;;;;;;;;;;;;;;;;;;5047729;28;5016;-56
2023/03/17 03:57:33;;;;;;;;;;;;;;;;;;5042365;28;3262;-56
2023/03/17 03:59:59;;;;;;;;;;;;;;;;;;5041776;28;5139;-56
2023/03/17 04:02:24;;;;;;;;;;;;;;;;;;5045242;28;5049;-57
2023/03/17 04:04:49;;;;;;;;;;;;;;;;;;5039290;28;4557;-56
2023/03/17 04:07:15;;;;;;;;;;;;;;;;;;5047594;28;5164;-55
2023/03/17 04:09:40;;;;;;;;;;;;;;;;;;5051011;28;1157;-55
2023/03/17 04:12:06;;;;;;;;;;;;;;;;;;5040748;28;4434;-54
2023/03/17 04:14:32;;;;;;;;;;;;;;;;;;5048799;28;4980;-56
2023/03/17 04:16:57;;;;;;;;;;;;;;;;;;5043124;28;5045;-56
2023/03/17 04:19:22;;;;;;;;;;;;;;;;;;5041188;28;5051;-55
2023/03/17 04:21:47;;;;;;;;;;;;;;;;;;5050324;28;3417;-55
2023/03/17 04:24:13;;;;;;;;;;;;;;;;;;5046304;28;4367;-55
2023/03/17 04:26:39;;;;;;;;;;;;;;;;;;5038109;28;4506;-54
2023/03/17 04:29:06;;;;;;;;;;;;;;;;;;5048716;28;4461;-56
2023/03/17 04:31:32;;;;;;;;;;;;;;;;;;5043810;28;5027;-54
2023/03/17 04:33:57;;;;;;;;;;;;;;;;;;5044318;28;4483;-55
2023/03/17 04:36:22;;;;;;;;;;;;;;;;;;5045467;28;3176;-54
2023/03/17 04:38:48;;;;;;;;;;;;;;;;;;5039844;28;4745;-52
2023/03/17 04:41:13;;;;;;;;;;;;;;;;;;5038334;28;4480;-53
2023/03/17 04:43:38;;;;;;;;;;;;;;;;;;5039037;28;4678;-55
2023/03/17 04:46:04;;;;;;;;;;;;;;;;;;5041255;28;4621;-56
2023/03/17 04:48:30;;;;;;;;;;;;;;;;;;5043712;28;3220;-57
2023/03/17 04:50:55;;;;;;;;;;;;;;;;;;5046560;28;5094;-55
2023/03/17 04:53:21;;;;;;;;;;;;;;;;;;5048058;28;5122;-54
2023/03/17 04:55:46;;;;;;;;;;;;;;;;;;5043709;28;5436;-55
2023/03/17 04:58:11;;;;;;;;;;;;;;;;;;5045132;28;4979;-56
2023/03/17 05:00:37;;;;;;;;;;;;;;;;;;5047140;28;2439;-56
2023/03/17 05:03:05;;;;;;;;;;;;;;;;;;5042192;28;5028;-53
2023/03/17 05:05:30;;;;;;;;;;;;;;;;;;5046525;28;5004;-56
2023/03/17 05:07:55;;;;;;;;;;;;;;;;;;5043557;28;4551;-55
2023/03/17 05:10:20;;;;;;;;;;;;;;;;;;5043235;28;5075;-55
2023/03/17 05:12:46;;;;;;;;;;;;;;;;;;5040985;28;3324;-53
2023/03/17 05:15:11;;;;;;;;;;;;;;;;;;5040011;28;4429;-56
2023/03/17 05:17:36;;;;;;;;;;;;;;;;;;5041533;28;4961;-55
2023/03/17 05:20:03;;;;;;;;;;;;;;;;;;5037813;28;5133;-53
2023/03/17 05:22:28;;;;;;;;;;;;;;;;;;5041546;28;4501;-54
2023/03/17 05:24:53;;;;;;;;;;;;;;;;;;5043227;28;5163;-54
2023/03/17 05:27:19;;;;;;;;;;;;;;;;;;5041843;28;3411;-54
2023/03/17 05:29:44;;;;;;;;;;;;;;;;;;5037875;28;5276;-55
2023/03/17 05:32:09;;;;;;;;;;;;;;;;;;5042459;28;4488;-56
2023/03/17 05:34:34;;;;;;;;;;;;;;;;;;5039753;28;4526;-54
2023/03/17 05:37:00;;;;;;;;;;;;;;;;;;5040306;28;4979;-56
2023/03/17 05:39:25;;;;;;;;;;;;;;;;;;5046530;28;3143;-57
2023/03/17 05:41:51;;;;;;;;;;;;;;;;;;5043126;28;4466;-56
2023/03/17 05:44:16;;;;;;;;;;;;;;;;;;5042207;28;4931;-56
2023/03/17 05:46:41;;;;;;;;;;;;;;;;;;5046892;28;5048;-56
2023/03/17 05:49:07;;;;;;;;;;;;;;;;;;5044580;28;5080;-55
2023/03/17 05:51:32;;;;;;;;;;;;;;;;;;5042256;28;3269;-54
2023/03/17 05:53:57;;;;;;;;;;;;;;;;;;5037448;28;4538;-56
2023/03/17 05:56:23;;;;;;;;;;;;;;;;;;5043020;28;5024;-56
2023/03/17 05:58:49;;;;;;;;;;;;;;;;;;5044193;28;4507;-55
2023/03/17 06:01:14;;;;;;;;;;;;;;;;;;5042861;28;5018;-54
2023/03/17 06:03:39;;;;;;;;;;;;;;;;;;5046743;28;3040;-56
2023/03/17 06:06:05;;;;;;;;;;;;;;;;;;5041988;28;4531;-53
2023/03/17 06:08:30;;;;;;;;;;;;;;;;;;5036637;28;5060;-56
2023/03/17 06:10:55;;;;;;;;;;;;;;;;;;5041650;28;4702;-55
2023/03/17 06:13:21;;;;;;;;;;;;;;;;;;5042823;28;5032;-56
2023/03/17 06:15:46;;;;;;;;;;;;;;;;;;5041459;28;3270;-55
2023/03/17 06:18:11;;;;;;;;;;;;;;;;;;5033557;28;5083;-57
2023/03/17 06:20:37;;;;;;;;;;;;;;;;;;5041565;28;4483;-57
2023/03/17 06:23:02;;;;;;;;;;;;;;;;;;5041420;28;4657;-56
2023/03/17 06:25:27;;;;;;;;;;;;;;;;;;5039538;28;4691;-56
2023/03/17 06:27:54;;;;;;;;;;;;;;;;;;5041899;28;4503;-55
2023/03/17 06:30:20;;;;;;;;;;;;;;;;;;5037580;28;3485;-54
2023/03/17 06:32:46;;;;;;;;;;;;;;;;;;5032441;28;4534;-54
2023/03/17 06:35:12;;;;;;;;;;;;;;;;;;5030768;28;4732;-53
2023/03/17 06:37:37;;;;;;;;;;;;;;;;;;5067984;28;4531;-56
2023/03/17 06:40:04;;;;;;;;;;;;;;;;;;5037363;28;4488;-54
2023/03/17 06:42:30;;;;;;;;;;;;;;;;;;5049565;28;3274;-56
2023/03/17 06:44:55;;;;;;;;;;;;;;;;;;5041663;28;4616;-57
2023/03/17 06:47:21;;;;;;;;;;;;;;;;;;5043930;28;4571;-58
2023/03/17 06:49:46;;;;;;;;;;;;;;;;;;5039270;28;4707;-58
2023/03/17 06:52:12;;;;;;;;;;;;;;;;;;5032494;28;5048;-57
2023/03/17 06:54:37;;;;;;;;;;;;;;;;;;5040675;28;3274;-58
2023/03/17 06:57:03;;;;;;;;;;;;;;;;;;5040051;28;4648;-57
2023/03/17 06:59:29;;;;;;;;;;;;;;;;;;5041141;28;4920;-57
2023/03/17 07:01:54;;;;;;;;;;;;;;;;;;5043231;28;4943;-57
2023/03/17 07:04:20;;;;;;;;;;;;;;;;;;5042166;28;4668;-57
2023/03/17 07:06:45;;;;;;;;;;;;;;;;;;5049058;28;3247;-58
2023/03/17 07:09:10;;;;;;;;;;;;;;;;;;5047089;28;4448;-58
2023/03/17 07:11:35;;;;;;;;;;;;;;;;;;5049066;28;4552;-57
2023/03/17 07:14:01;;;;;;;;;;;;;;;;;;5052482;28;4657;-57
2023/03/17 07:16:27;;;;;;;;;;;;;;;;;;5050155;28;4504;-58
2023/03/17 07:18:53;;;;;;;;;;;;;;;;;;5042659;28;4745;-58
2023/03/17 07:21:18;;;;;;;;;;;;;;;;;;5051080;28;3021;-58
2023/03/17 07:23:43;;;;;;;;;;;;;;;;;;5052636;28;4558;-58
2023/03/17 07:26:08;;;;;;;;;;;;;;;;;;5050016;28;5093;-57
2023/03/17 07:28:34;;;;;;;;;;;;;;;;;;5048747;28;4638;-57
2023/03/17 07:31:01;;;;;;;;;;;;;;;;;;5052870;28;5479;-57
2023/03/17 07:33:26;;;;;;;;;;;;;;;;;;5047481;28;1127;-58
2023/03/17 07:35:52;;;;;;;;;;;;;;;;;;5053115;28;4604;-58
2023/03/17 07:38:18;;;;;;;;;;;;;;;;;;5051509;28;4505;-58
2023/03/17 07:40:45;;;;;;;;;;;;;;;;;;5051296;28;4560;-58
2023/03/17 07:43:11;;;;;;;;;;;;;;;;;;5051641;28;4670;-57
2023/03/17 07:45:36;;;;;;;;;;;;;;;;;;5051632;28;1025;-58
2023/03/17 07:48:03;;;;;;;;;;;;;;;;;;5033622;28;4546;-57
2023/03/17 07:50:29;;;;;;;;;;;;;;;;;;5041450;28;5165;-58
2023/03/17 07:52:55;;;;;;;;;;;;;;;;;;5053145;28;4927;-57
2023/03/17 07:55:22;;;;;;;;;;;;;;;;;;5048945;28;4597;-57
2023/03/17 07:57:47;;;;;;;;;;;;;;;;;;5049858;28;1182;-57
2023/03/17 08:00:13;;;;;;;;;;;;;;;;;;5053057;28;4564;-59
2023/03/17 08:02:38;;;;;;;;;;;;;;;;;;5042602;28;4589;-58
2023/03/17 08:05:04;;;;;;;;;;;;;;;;;;5051919;28;4532;-58
2023/03/17 08:07:30;;;;;;;;;;;;;;;;;;5053061;28;4493;-57
2023/03/17 08:09:56;;;;;;;;;;;;;;;;;;5053449;28;4478;-57
2023/03/17 08:12:22;;;;;;;;;;;;;;;;;;5046995;28;3479;-57
2023/03/17 08:14:47;;;;;;;;;;;;;;;;;;5047268;28;5248;-57
2023/03/17 08:17:12;;;;;;;;;;;;;;;;;;5048556;28;5013;-59
2023/03/17 08:19:38;;;;;;;;;;;;;;;;;;5042143;28;5082;-58
2023/03/17 08:22:03;;;;;;;;;;;;;;;;;;5049924;28;4991;-58
2023/03/17 08:24:28;;;;;;;;;;;;;;;;;;5046887;28;2014;-57
2023/03/17 08:26:54;;;;;;;;;;;;;;;;;;5044826;28;5099;-58
2023/03/17 08:29:19;;;;;;;;;;;;;;;;;;5030055;28;4496;-58
2023/03/17 08:31:45;;;;;;;;;;;;;;;;;;5045700;28;5055;-58
2023/03/17 08:34:10;;;;;;;;;;;;;;;;;;5049830;28;5032;-58
2023/03/17 08:36:35;;;;;;;;;;;;;;;;;;5047876;28;1257;-57
2023/03/17 08:39:01;;;;;;;;;;;;;;;;;;5039841;28;5187;-58
2023/03/17 08:41:27;;;;;;;;;;;;;;;;;;5038391;28;4808;-58
2023/03/17 08:43:52;;;;;;;;;;;;;;;;;;5042840;28;4633;-57
2023/03/17 08:46:17;;;;;;;;;;;;;;;;;;5043514;28;4618;-57
2023/03/17 08:48:43;;;;;;;;;;;;;;;;;;5041475;28;1349;-59
2023/03/17 08:51:09;;;;;;;;;;;;;;;;;;5048253;28;4454;-58
2023/03/17 08:53:34;;;;;;;;;;;;;;;;;;5040003;28;5048;-58
2023/03/17 08:56:00;;;;;;;;;;;;;;;;;;5041981;28;4555;-57
2023/03/17 08:58:25;;;;;;;;;;;;;;;;;;5044580;28;4684;-58
2023/03/17 09:00:51;;;;;;;;;;;;;;;;;;5034038;28;5031;-57
2023/03/17 09:03:17;;;;;;;;;;;;;;;;;;5044714;28;1172;-57
2023/03/17 09:05:42;;;;;;;;;;;;;;;;;;5038291;28;4495;-57
2023/03/17 09:08:08;;;;;;;;;;;;;;;;;;5043579;28;5165;-57
2023/03/17 09:10:34;;;;;;;;;;;;;;;;;;5046206;28;4980;-58
2023/03/17 09:13:02;;;;;;;;;;;;;;;;;;5042222;28;4451;-58
2023/03/17 09:15:28;;;;;;;;;;;;;;;;;;5039126;28;1314;-58
2023/03/17 09:17:53;;;;;;;;;;;;;;;;;;5045812;28;4685;-58
2023/03/17 09:20:19;;;;;;;;;;;;;;;;;;5046110;28;4677;-58
2023/03/17 09:22:47;;;;;;;;;;;;;;;;;;5043795;28;5153;-58
2023/03/17 09:25:12;;;;;;;;;;;;;;;;;;5040161;28;4918;-59
2023/03/17 09:27:38;;;;;;;;;;;;;;;;;;5048261;28;1217;-58
2023/03/17 09:30:03;;;;;;;;;;;;;;;;;;5041941;28;4996;-58
2023/03/17 09:32:28;;;;;;;;;;;;;;;;;;5043249;28;4420;-57
2023/03/17 09:34:54;;;;;;;;;;;;;;;;;;5046518;28;4892;-57
2023/03/17 09:37:19;;;;;;;;;;;;;;;;;;5046874;28;5030;-57
2023/03/17 09:39:45;;;;;;;;;;;;;;;;;;5042568;28;1906;-58
2023/03/17 09:42:13;;;;;;;;;;;;;;;;;;5044045;28;4420;-58
2023/03/17 09:44:47;;;;;;;;;;;;;;;;;;5048972;28;4524;-59
2023/03/17 09:47:31;;;;;;;;;;;;;;;;;;5047618;28;4606;-58
2023/03/17 09:49:57;;;;;;;;;;;;;;;;;;5040404;28;4595;-58
2023/03/17 09:52:29;;;;;;;;;;;;;;;;;;5045311;28;4522;-57
2023/03/17 09:54:54;;;;;;;;;;;;;;;;;;5040939;28;4535;-58
2023/03/17 09:57:31;;;;;;;;;;;;;;;;;;5025260;28;1211;-58
2023/03/17 10:00:00;;;;;;;;;;;;;;;;;;5037839;28;4487;-57
2023/03/17 10:02:26;;;;;;;;;;;;;;;;;;5042966;28;4442;-59
2023/03/17 10:04:51;;;;;;;;;;;;;;;;;;5038521;28;4554;-58
2023/03/17 10:07:18;;;;;;;;;;;;;;;;;;5034923;28;5105;-57
2023/03/17 10:09:56;;;;;;;;;;;;;;;;;;5076863;28;1175;-58
2023/03/17 10:12:24;;;;;;;;;;;;;;;;;;5041478;28;5189;-57
2023/03/17 10:15:25;;;;;;;;;;;;;;;;;;5045802;28;4998;-57
2023/03/17 10:17:51;;;;;;;;;;;;;;;;;;5039670;28;5090;-57
2023/03/17 10:20:19;;;;;;;;;;;;;;;;;;5032899;28;4554;-57
2023/03/17 10:22:47;;;;;;;;;;;;;;;;;;5039747;28;4542;-58
2023/03/17 10:25:15;;;;;;;;;;;;;;;;;;5034123;28;4488;-58
2023/03/17 10:27:40;;;;;;;;;;;;;;;;;;5039235;28;1412;-58
2023/03/17 10:30:12;;;;;;;;;;;;;;;;;;5045911;28;4854;-58
2023/03/17 10:32:37;;;;;;;;;;;;;;;;;;5070853;28;4589;-58
2023/03/17 10:35:03;;;;;;;;;;;;;;;;;;5041793;28;4985;-57
2023/03/17 10:37:35;;;;;;;;;;;;;;;;;;5047531;28;4485;-58
2023/03/17 10:40:02;;;;;;;;;;;;;;;;;;5044564;28;5119;-58
2023/03/17 10:42:28;;;;;;;;;;;;;;;;;;5047048;28;1185;-57
2023/03/17 10:44:53;;;;;;;;;;;;;;;;;;5038675;28;4685;-58
2023/03/17 10:47:21;;;;;;;;;;;;;;;;;;5040423;28;5070;-57
2023/03/17 10:49:47;;;;;;;;;;;;;;;;;;5039416;28;4479;-58
2023/03/17 10:52:17;;;;;;;;;;;;;;;;;;5043817;28;4506;-59
2023/03/17 10:54:45;;;;;;;;;;;;;;;;;;5075294;28;1228;-57
2023/03/17 10:57:12;;;;;;;;;;;;;;;;;;5041720;28;5179;-57
2023/03/17 10:59:41;;;;;;;;;;;;;;;;;;5028229;28;4984;-58
2023/03/17 11:02:26;;;;;;;;;;;;;;;;;;5028805;28;4471;-57
2023/03/17 11:04:53;;;;;;;;;;;;;;;;;;5033131;28;4680;-57
2023/03/17 11:07:19;;;;;;;;;;;;;;;;;;5036471;28;5041;-57
2023/03/17 11:09:48;;;;;;;;;;;;;;;;;;5040296;28;1175;-57
2023/03/17 11:12:20;;;;;;;;;;;;;;;;;;5036067;28;4933;-58
2023/03/17 11:14:45;;;;;;;;;;;;;;;;;;5034348;28;5078;-57
2023/03/17 11:17:18;;;;;;;;;;;;;;;;;;5026279;28;4590;-58
2023/03/17 11:20:06;;;;;;;;;;;;;;;;;;5040083;28;5134;-58
2023/03/17 11:22:37;;;;;;;;;;;;;;;;;;5040629;28;5000;-58
2023/03/17 11:25:03;;;;;;;;;;;;;;;;;;5042331;28;5088;-57
2023/03/17 11:27:34;;;;;;;;;;;;;;;;;;5043610;28;2424;-57
2023/03/17 11:30:09;;;;;;;;;;;;;;;;;;5037877;28;4437;-57
2023/03/17 11:32:35;;;;;;;;;;;;;;;;;;5034037;28;4476;-57
2023/03/17 11:35:05;;;;;;;;;;;;;;;;;;5036660;28;4666;-58
2023/03/17 11:37:39;;;;;;;;;;;;;;;;;;5035315;28;4495;-58
2023/03/17 11:40:13;;;;;;;;;;;;;;;;;;5037588;28;4471;-57
2023/03/17 11:42:51;;;;;;;;;;;;;;;;;;5036764;28;3605;-57
2023/03/17 11:45:20;;;;;;;;;;;;;;;;;;5046853;28;5257;-57
2023/03/17 11:47:55;;;;;;;;;;;;;;;;;;5034131;28;5167;-57
2023/03/17 11:50:32;;;;;;;;;;;;;;;;;;5044169;28;4489;-57
2023/03/17 11:53:16;;;;;;;;;;;;;;;;;;5048434;28;4875;-59
2023/03/17 11:55:44;;;;;;;;;;;;;;;;;;5038945;28;4482;-58
2023/03/17 11:58:18;;;;;;;;;;;;;;;;;;5022522;28;5069;-57
2023/03/17 12:00:44;;;;;;;;;;;;;;;;;;5032296;28;1303;-58
2023/03/17 12:03:44;;;;;;;;;;;;;;;;;;5034358;28;4975;-57
2023/03/17 12:06:12;;;;;;;;;;;;;;;;;;5041084;28;4631;-58
2023/03/17 12:08:37;;;;;;;;;;;;;;;;;;5048215;28;5016;-57
2023/03/17 12:11:04;;;;;;;;;;;;;;;;;;5044557;28;4513;-57
2023/03/17 12:13:33;;;;;;;;;;;;;;;;;;5044930;28;4824;-58
2023/03/17 12:16:10;;;;;;;;;;;;;;;;;;5039576;28;4940;-59
2023/03/17 12:18:35;;;;;;;;;;;;;;;;;;5033596;28;4717;-58
2023/03/17 12:21:16;;;;;;;;;;;;;;;;;;5048817;28;4616;-58
2023/03/17 12:23:48;;;;;;;;;;;;;;;;;;5045361;28;4469;-57
2023/03/17 12:26:15;;;;;;;;;;;;;;;;;;5048864;28;4973;-57
2023/03/17 12:28:41;;;;;;;;;;;;;;;;;;5075077;28;4450;-58
2023/03/17 12:31:08;;;;;;;;;;;;;;;;;;5042433;28;5112;-59
2023/03/17 12:33:52;;;;;;;;;;;;;;;;;;5046488;28;1199;-58
2023/03/17 12:36:17;;;;;;;;;;;;;;;;;;5048541;28;5015;-57
2023/03/17 12:38:49;;;;;;;;;;;;;;;;;;5040433;28;4472;-59
2023/03/17 12:41:33;;;;;;;;;;;;;;;;;;5080433;28;4637;-57
2023/03/17 12:44:25;;;;;;;;;;;;;;;;;;5045094;28;5057;-57
2023/03/17 12:47:10;;;;;;;;;;;;;;;;;;5045370;28;4582;-58
2023/03/17 12:49:54;;;;;;;;;;;;;;;;;;5039031;28;4522;-58
2023/03/17 12:52:36;;;;;;;;;;;;;;;;;;5040611;28;4486;-57
2023/03/17 12:55:01;;;;;;;;;;;;;;;;;;5042611;28;4428;-58
2023/03/17 12:57:27;;;;;;;;;;;;;;;;;;5036055;28;1095;-58
2023/03/17 13:00:16;;;;;;;;;;;;;;;;;;5037527;28;4467;-58
2023/03/17 13:02:41;;;;;;;;;;;;;;;;;;5034223;28;4482;-58
2023/03/17 13:05:12;;;;;;;;;;;;;;;;;;5044070;28;5977;-58
2023/03/17 13:07:38;;;;;;;;;;;;;;;;;;5042530;28;5218;-57
2023/03/17 13:10:09;;;;;;;;;;;;;;;;;;5046119;28;5295;-57
2023/03/17 13:12:41;;;;;;;;;;;;;;;;;;5047183;28;1170;-59
2023/03/17 13:15:22;;;;;;;;;;;;;;;;;;5043987;28;4470;-58
2023/03/17 13:17:47;;;;;;;;;;;;;;;;;;5042967;28;4999;-58
2023/03/17 13:20:14;;;;;;;;;;;;;;;;;;5044976;28;5514;-58
2023/03/17 13:22:39;;;;;;;;;;;;;;;;;;5046194;28;4514;-58
2023/03/17 13:25:31;;;;;;;;;;;;;;;;;;5046959;28;5026;-58
2023/03/17 13:28:23;;;;;;;;;;;;;;;;;;5041831;28;4536;-57
2023/03/17 13:30:48;;;;;;;;;;;;;;;;;;5047093;28;4539;-56
2023/03/17 13:33:26;;;;;;;;;;;;;;;;;;5045874;28;3166;-58
2023/03/17 13:36:10;;;;;;;;;;;;;;;;;;5027157;28;4496;-58
2023/03/17 13:38:35;;;;;;;;;;;;;;;;;;5045229;28;4452;-57
2023/03/17 13:41:16;;;;;;;;;;;;;;;;;;5045212;28;5045;-57
2023/03/17 13:43:44;;;;;;;;;;;;;;;;;;5041676;28;5197;-57
2023/03/17 13:46:16;;;;;;;;;;;;;;;;;;5041055;28;5214;-58
2023/03/17 13:48:41;;;;;;;;;;;;;;;;;;5032886;28;3013;-58
2023/03/17 13:51:09;;;;;;;;;;;;;;;;;;5043662;28;4823;-58
2023/03/17 13:53:36;;;;;;;;;;;;;;;;;;5042315;28;4455;-58
2023/03/17 13:56:08;;;;;;;;;;;;;;;;;;5042565;28;4508;-58
2023/03/17 13:58:33;;;;;;;;;;;;;;;;;;5040404;28;4417;-56
2023/03/17 14:01:01;;;;;;;;;;;;;;;;;;5046061;28;4783;-57
2023/03/17 14:04:02;;;;;;;;;;;;;;;;;;5034707;28;1337;-58
2023/03/17 14:06:30;;;;;;;;;;;;;;;;;;5025114;28;4602;-57
2023/03/17 14:08:59;;;;;;;;;;;;;;;;;;5030908;28;4579;-57
2023/03/17 14:11:28;;;;;;;;;;;;;;;;;;5031670;28;4634;-57
2023/03/17 14:14:03;;;;;;;;;;;;;;;;;;5044889;28;5192;-57
2023/03/17 14:16:32;;;;;;;;;;;;;;;;;;5042286;28;5053;-58
2023/03/17 14:18:59;;;;;;;;;;;;;;;;;;5045588;28;4693;-57
2023/03/17 14:21:28;;;;;;;;;;;;;;;;;;5035524;28;1080;-56
2023/03/17 14:23:54;;;;;;;;;;;;;;;;;;5039452;28;4442;-59
2023/03/17 14:26:20;;;;;;;;;;;;;;;;;;5047091;28;5416;-56
2023/03/17 14:28:46;;;;;;;;;;;;;;;;;;5044762;28;4499;-57
2023/03/17 14:31:15;;;;;;;;;;;;;;;;;;5079318;28;4740;-56
2023/03/17 14:33:40;;;;;;;;;;;;;;;;;;5048416;28;1199;-56
2023/03/17 14:36:06;;;;;;;;;;;;;;;;;;5075832;28;4438;-57
2023/03/17 14:38:33;;;;;;;;;;;;;;;;;;5028981;28;4645;-58
2023/03/17 14:41:05;;;;;;;;;;;;;;;;;;5043849;28;4479;-59
2023/03/17 14:43:31;;;;;;;;;;;;;;;;;;5046988;28;5137;-56
2023/03/17 14:46:00;;;;;;;;;;;;;;;;;;5033871;28;4653;-56
2023/03/17 14:48:26;;;;;;;;;;;;;;;;;;5035793;28;1491;-57
2023/03/17 14:50:55;;;;;;;;;;;;;;;;;;5040681;28;5172;-55
2023/03/17 14:53:22;;;;;;;;;;;;;;;;;;5037620;28;5129;-58
2023/03/17 14:55:47;;;;;;;;;;;;;;;;;;5044664;28;4462;-58
2023/03/17 14:58:46;;;;;;;;;;;;;;;;;;5041888;28;4538;-58
2023/03/17 15:01:15;;;;;;;;;;;;;;;;;;5038157;28;4511;-56
2023/03/17 15:03:50;;;;;;;;;;;;;;;;;;5042203;28;3247;-58
2023/03/17 15:06:22;;;;;;;;;;;;;;;;;;5040305;28;6138;-59
2023/03/17 15:08:49;;;;;;;;;;;;;;;;;;5041797;28;4620;-58
2023/03/17 15:11:35;;;;;;;;;;;;;;;;;;5039460;28;4951;-59
2023/03/17 15:14:14;;;;;;;;;;;;;;;;;;5037946;28;4617;-58
2023/03/17 15:16:39;;;;;;;;;;;;;;;;;;5041599;28;5043;-58
2023/03/17 15:19:06;;;;;;;;;;;;;;;;;;5045096;28;4815;-58
2023/03/17 15:21:37;;;;;;;;;;;;;;;;;;5038146;28;3154;-58
2023/03/17 15:24:03;;;;;;;;;;;;;;;;;;5040764;28;4517;-58
2023/03/17 15:26:31;;;;;;;;;;;;;;;;;;5052535;28;5063;-58
2023/03/17 15:28:58;;;;;;;;;;;;;;;;;;5048368;28;4468;-59
2023/03/17 15:31:25;;;;;;;;;;;;;;;;;;5045709;28;4678;-59
2023/03/17 15:33:50;;;;;;;;;;;;;;;;;;5043948;28;4539;-58
2023/03/17 15:36:16;;;;;;;;;;;;;;;;;;5047947;28;1102;-58
2023/03/17 15:38:41;;;;;;;;;;;;;;;;;;5040055;28;4525;-56
2023/03/17 15:41:06;;;;;;;;;;;;;;;;;;5045869;28;4641;-58
2023/03/17 15:43:32;;;;;;;;;;;;;;;;;;5050101;28;4501;-58
2023/03/17 15:45:58;;;;;;;;;;;;;;;;;;5046388;28;4674;-58
2023/03/17 15:48:25;;;;;;;;;;;;;;;;;;5047931;28;3351;-58
2023/03/17 15:50:50;;;;;;;;;;;;;;;;;;5043097;28;4505;-58
2023/03/17 15:53:16;;;;;;;;;;;;;;;;;;5042127;28;4523;-58
2023/03/17 15:55:42;;;;;;;;;;;;;;;;;;5045925;28;4722;-58
2023/03/17 15:58:07;;;;;;;;;;;;;;;;;;5045503;28;4655;-59
2023/03/17 16:00:33;;;;;;;;;;;;;;;;;;5046542;28;3314;-59
2023/03/17 16:03:01;;;;;;;;;;;;;;;;;;5041216;28;4474;-58
2023/03/17 16:05:27;;;;;;;;;;;;;;;;;;5045450;28;4645;-58
2023/03/17 16:07:53;;;;;;;;;;;;;;;;;;5041445;28;4508;-60
2023/03/17 16:10:28;;;;;;;;;;;;;;;;;;5038748;28;4528;-60
2023/03/17 16:12:53;;;;;;;;;;;;;;;;;;5042057;28;5060;-58
2023/03/17 16:15:19;;;;;;;;;;;;;;;;;;5047325;28;3237;-59
2023/03/17 16:17:45;;;;;;;;;;;;;;;;;;5044418;28;5016;-60
2023/03/17 16:20:33;;;;;;;;;;;;;;;;;;5039360;28;4532;-58
2023/03/17 16:23:00;;;;;;;;;;;;;;;;;;5033555;28;5168;-58
2023/03/17 16:25:26;;;;;;;;;;;;;;;;;;5045193;28;5317;-58
2023/03/17 16:27:52;;;;;;;;;;;;;;;;;;5052093;28;5120;-60
2023/03/17 16:30:18;;;;;;;;;;;;;;;;;;5052512;28;3088;-60
2023/03/17 16:32:43;;;;;;;;;;;;;;;;;;5048217;28;4953;-60
2023/03/17 16:35:15;;;;;;;;;;;;;;;;;;5049941;28;4436;-60
2023/03/17 16:37:40;;;;;;;;;;;;;;;;;;5045648;28;4493;-60
2023/03/17 16:40:12;;;;;;;;;;;;;;;;;;5045455;28;5167;-60
2023/03/17 16:42:40;;;;;;;;;;;;;;;;;;5045119;28;3197;-59
2023/03/17 16:45:06;;;;;;;;;;;;;;;;;;5040520;28;4829;-59
2023/03/17 16:47:31;;;;;;;;;;;;;;;;;;5040092;28;5603;-60
2023/03/17 16:49:57;;;;;;;;;;;;;;;;;;5042527;28;5776;-60
2023/03/17 16:52:22;;;;;;;;;;;;;;;;;;5047170;28;4886;-59
2023/03/17 16:54:47;;;;;;;;;;;;;;;;;;5049964;28;1135;-59
2023/03/17 16:57:12;;;;;;;;;;;;;;;;;;5046461;28;4973;-59
2023/03/17 16:59:38;;;;;;;;;;;;;;;;;;5033595;28;4532;-59
2023/03/17 17:02:05;;;;;;;;;;;;;;;;;;5029070;28;4569;-58
2023/03/17 17:04:33;;;;;;;;;;;;;;;;;;5045336;28;4650;-60
2023/03/17 17:06:58;;;;;;;;;;;;;;;;;;5040850;28;4648;-59